sensor_id;sensor_type;location;lat;lon;timestamp;P1;durP1;ratioP1;P2;durP2;ratioP2
8488;SDS011;4281;45.772;12.852;2023-07-20T00:00:02;3.73;;;3.23;;
8488;SDS011;4281;45.772;12.852;2023-07-20T00:02:31;5.43;;;3.70;;
8488;SDS011;4281;45.772;12.852;2023-07-20T00:04:59;5.00;;;3.30;;
8488;SDS011;4281;45.772;12.852;2023-07-20T00:07:27;4.53;;;3.63;;
8488;SDS011;4281;45.772;12.852;2023-07-20T00:09:56;3.67;;;3.20;;
8488;SDS011;4281;45.772;12.852;2023-07-20T00:12:24;4.77;;;3.60;;
8488;SDS011;4281;45.772;12.852;2023-07-20T00:14:52;4.23;;;3.63;;
8488;SDS011;4281;45.772;12.852;2023-07-20T00:17:21;4.10;;;3.60;;
8488;SDS011;4281;45.772;12.852;2023-07-20T00:19:49;4.07;;;3.50;;
8488;SDS011;4281;45.772;12.852;2023-07-20T00:22:17;5.60;;;3.90;;
8488;SDS011;4281;45.772;12.852;2023-07-20T00:24:45;4.60;;;3.70;;
8488;SDS011;4281;45.772;12.852;2023-07-20T00:27:14;3.93;;;3.53;;
8488;SDS011;4281;45.772;12.852;2023-07-20T00:29:42;4.50;;;3.37;;
8488;SDS011;4281;45.772;12.852;2023-07-20T00:32:10;4.60;;;3.67;;
8488;SDS011;4281;45.772;12.852;2023-07-20T00:34:38;4.87;;;3.60;;
8488;SDS011;4281;45.772;12.852;2023-07-20T00:37:05;5.00;;;4.03;;
8488;SDS011;4281;45.772;12.852;2023-07-20T00:39:34;4.90;;;3.90;;
8488;SDS011;4281;45.772;12.852;2023-07-20T00:42:02;4.37;;;3.50;;
8488;SDS011;4281;45.772;12.852;2023-07-20T00:44:32;4.40;;;3.77;;
8488;SDS011;4281;45.772;12.852;2023-07-20T00:46:59;4.57;;;3.87;;
8488;SDS011;4281;45.772;12.852;2023-07-20T00:49:27;4.57;;;3.93;;
8488;SDS011;4281;45.772;12.852;2023-07-20T00:51:55;6.20;;;3.90;;
8488;SDS011;4281;45.772;12.852;2023-07-20T00:54:23;4.33;;;3.93;;
8488;SDS011;4281;45.772;12.852;2023-07-20T00:56:51;4.57;;;3.90;;
8488;SDS011;4281;45.772;12.852;2023-07-20T00:59:21;4.47;;;3.70;;
8488;SDS011;4281;45.772;12.852;2023-07-20T01:01:50;4.47;;;3.83;;
8488;SDS011;4281;45.772;12.852;2023-07-20T01:04:18;4.57;;;3.77;;
8488;SDS011;4281;45.772;12.852;2023-07-20T01:06:48;4.90;;;3.90;;
8488;SDS011;4281;45.772;12.852;2023-07-20T01:09:22;4.73;;;3.90;;
8488;SDS011;4281;45.772;12.852;2023-07-20T01:11:57;4.43;;;4.03;;
8488;SDS011;4281;45.772;12.852;2023-07-20T01:14:28;4.23;;;3.70;;
8488;SDS011;4281;45.772;12.852;2023-07-20T01:16:59;4.30;;;3.90;;
8488;SDS011;4281;45.772;12.852;2023-07-20T01:19:27;5.17;;;3.63;;
8488;SDS011;4281;45.772;12.852;2023-07-20T01:21:55;5.07;;;4.03;;
8488;SDS011;4281;45.772;12.852;2023-07-20T01:24:32;3.80;;;3.40;;
8488;SDS011;4281;45.772;12.852;2023-07-20T01:27:22;4.57;;;3.97;;
8488;SDS011;4281;45.772;12.852;2023-07-20T01:32:45;4.83;;;4.03;;
8488;SDS011;4281;45.772;12.852;2023-07-20T01:35:14;4.20;;;3.53;;
8488;SDS011;4281;45.772;12.852;2023-07-20T01:37:44;4.83;;;3.97;;
8488;SDS011;4281;45.772;12.852;2023-07-20T01:40:13;4.37;;;3.40;;
8488;SDS011;4281;45.772;12.852;2023-07-20T01:42:43;4.63;;;3.33;;
8488;SDS011;4281;45.772;12.852;2023-07-20T01:45:12;4.53;;;3.60;;
8488;SDS011;4281;45.772;12.852;2023-07-20T01:47:40;4.63;;;3.83;;
8488;SDS011;4281;45.772;12.852;2023-07-20T01:50:10;4.10;;;3.47;;
8488;SDS011;4281;45.772;12.852;2023-07-20T01:52:38;4.87;;;3.50;;
8488;SDS011;4281;45.772;12.852;2023-07-20T01:55:06;6.13;;;4.00;;
8488;SDS011;4281;45.772;12.852;2023-07-20T01:57:35;5.50;;;3.90;;
8488;SDS011;4281;45.772;12.852;2023-07-20T02:00:04;4.30;;;3.60;;
8488;SDS011;4281;45.772;12.852;2023-07-20T02:02:33;4.10;;;3.50;;
8488;SDS011;4281;45.772;12.852;2023-07-20T02:05:01;3.90;;;3.50;;
8488;SDS011;4281;45.772;12.852;2023-07-20T02:07:30;4.13;;;3.70;;
8488;SDS011;4281;45.772;12.852;2023-07-20T02:09:58;5.67;;;3.90;;
8488;SDS011;4281;45.772;12.852;2023-07-20T02:12:26;3.40;;;3.10;;
8488;SDS011;4281;45.772;12.852;2023-07-20T02:14:54;3.63;;;3.07;;
8488;SDS011;4281;45.772;12.852;2023-07-20T02:17:22;6.67;;;3.50;;
8488;SDS011;4281;45.772;12.852;2023-07-20T02:19:50;3.70;;;3.40;;
8488;SDS011;4281;45.772;12.852;2023-07-20T02:22:19;3.47;;;2.70;;
8488;SDS011;4281;45.772;12.852;2023-07-20T02:24:49;3.77;;;2.93;;
8488;SDS011;4281;45.772;12.852;2023-07-20T02:27:17;3.50;;;3.03;;
8488;SDS011;4281;45.772;12.852;2023-07-20T02:29:45;3.07;;;2.70;;
8488;SDS011;4281;45.772;12.852;2023-07-20T02:32:12;3.20;;;2.90;;
8488;SDS011;4281;45.772;12.852;2023-07-20T02:34:40;3.47;;;2.90;;
8488;SDS011;4281;45.772;12.852;2023-07-20T02:37:08;3.20;;;2.87;;
8488;SDS011;4281;45.772;12.852;2023-07-20T02:39:39;3.47;;;3.07;;
8488;SDS011;4281;45.772;12.852;2023-07-20T02:42:08;3.17;;;2.70;;
8488;SDS011;4281;45.772;12.852;2023-07-20T02:44:36;3.33;;;2.77;;
8488;SDS011;4281;45.772;12.852;2023-07-20T02:47:04;3.60;;;2.90;;
8488;SDS011;4281;45.772;12.852;2023-07-20T02:49:33;3.43;;;3.13;;
8488;SDS011;4281;45.772;12.852;2023-07-20T02:52:01;3.43;;;2.90;;
8488;SDS011;4281;45.772;12.852;2023-07-20T02:54:28;3.30;;;2.53;;
8488;SDS011;4281;45.772;12.852;2023-07-20T02:56:57;2.60;;;2.40;;
8488;SDS011;4281;45.772;12.852;2023-07-20T02:59:26;3.23;;;2.93;;
8488;SDS011;4281;45.772;12.852;2023-07-20T03:01:55;3.10;;;2.77;;
8488;SDS011;4281;45.772;12.852;2023-07-20T03:04:25;3.00;;;2.80;;
8488;SDS011;4281;45.772;12.852;2023-07-20T03:06:53;2.83;;;2.47;;
8488;SDS011;4281;45.772;12.852;2023-07-20T03:09:21;3.20;;;2.90;;
8488;SDS011;4281;45.772;12.852;2023-07-20T03:11:49;3.57;;;2.87;;
8488;SDS011;4281;45.772;12.852;2023-07-20T03:14:17;3.53;;;3.23;;
8488;SDS011;4281;45.772;12.852;2023-07-20T03:16:46;3.30;;;2.97;;
8488;SDS011;4281;45.772;12.852;2023-07-20T03:19:15;3.20;;;2.90;;
8488;SDS011;4281;45.772;12.852;2023-07-20T03:21:43;3.20;;;2.90;;
8488;SDS011;4281;45.772;12.852;2023-07-20T03:24:11;3.17;;;2.87;;
8488;SDS011;4281;45.772;12.852;2023-07-20T03:26:38;2.97;;;2.57;;
8488;SDS011;4281;45.772;12.852;2023-07-20T03:29:06;3.73;;;3.07;;
8488;SDS011;4281;45.772;12.852;2023-07-20T03:31:34;3.87;;;3.20;;
8488;SDS011;4281;45.772;12.852;2023-07-20T03:34:04;3.27;;;2.90;;
8488;SDS011;4281;45.772;12.852;2023-07-20T03:36:32;2.83;;;2.63;;
8488;SDS011;4281;45.772;12.852;2023-07-20T03:39:00;4.30;;;3.13;;
8488;SDS011;4281;45.772;12.852;2023-07-20T03:41:29;3.30;;;2.90;;
8488;SDS011;4281;45.772;12.852;2023-07-20T03:43:57;3.30;;;2.90;;
8488;SDS011;4281;45.772;12.852;2023-07-20T03:46:25;3.77;;;3.37;;
8488;SDS011;4281;45.772;12.852;2023-07-20T03:48:53;3.73;;;3.13;;
8488;SDS011;4281;45.772;12.852;2023-07-20T03:51:22;3.10;;;2.80;;
8488;SDS011;4281;45.772;12.852;2023-07-20T03:53:50;3.20;;;2.90;;
8488;SDS011;4281;45.772;12.852;2023-07-20T03:56:18;4.20;;;2.83;;
8488;SDS011;4281;45.772;12.852;2023-07-20T03:58:46;3.10;;;2.77;;
8488;SDS011;4281;45.772;12.852;2023-07-20T04:01:14;2.63;;;2.43;;
8488;SDS011;4281;45.772;12.852;2023-07-20T04:03:43;4.80;;;3.27;;
8488;SDS011;4281;45.772;12.852;2023-07-20T04:06:14;3.27;;;2.97;;
8488;SDS011;4281;45.772;12.852;2023-07-20T04:08:45;2.90;;;2.60;;
8488;SDS011;4281;45.772;12.852;2023-07-20T04:11:13;3.70;;;2.93;;
8488;SDS011;4281;45.772;12.852;2023-07-20T04:13:41;3.90;;;3.30;;
8488;SDS011;4281;45.772;12.852;2023-07-20T04:16:09;3.07;;;2.83;;
8488;SDS011;4281;45.772;12.852;2023-07-20T04:18:37;3.67;;;2.93;;
8488;SDS011;4281;45.772;12.852;2023-07-20T04:21:07;2.97;;;2.77;;
8488;SDS011;4281;45.772;12.852;2023-07-20T04:23:35;3.17;;;2.80;;
8488;SDS011;4281;45.772;12.852;2023-07-20T04:26:04;3.90;;;2.97;;
8488;SDS011;4281;45.772;12.852;2023-07-20T04:28:33;3.20;;;3.00;;
8488;SDS011;4281;45.772;12.852;2023-07-20T04:31:09;3.10;;;2.70;;
8488;SDS011;4281;45.772;12.852;2023-07-20T04:33:37;3.00;;;2.73;;
8488;SDS011;4281;45.772;12.852;2023-07-20T04:36:05;2.63;;;2.43;;
8488;SDS011;4281;45.772;12.852;2023-07-20T04:38:33;3.20;;;2.90;;
8488;SDS011;4281;45.772;12.852;2023-07-20T04:41:01;3.20;;;2.90;;
8488;SDS011;4281;45.772;12.852;2023-07-20T04:43:31;2.97;;;2.73;;
8488;SDS011;4281;45.772;12.852;2023-07-20T04:45:58;3.17;;;2.83;;
8488;SDS011;4281;45.772;12.852;2023-07-20T04:48:27;4.07;;;2.80;;
8488;SDS011;4281;45.772;12.852;2023-07-20T04:50:55;3.20;;;2.90;;
8488;SDS011;4281;45.772;12.852;2023-07-20T04:53:23;3.77;;;2.90;;
8488;SDS011;4281;45.772;12.852;2023-07-20T04:55:51;4.87;;;3.07;;
8488;SDS011;4281;45.772;12.852;2023-07-20T04:58:20;3.20;;;2.80;;
8488;SDS011;4281;45.772;12.852;2023-07-20T05:00:50;6.50;;;2.87;;
8488;SDS011;4281;45.772;12.852;2023-07-20T05:03:21;3.20;;;2.90;;
8488;SDS011;4281;45.772;12.852;2023-07-20T05:05:49;3.10;;;2.80;;
8488;SDS011;4281;45.772;12.852;2023-07-20T05:08:17;3.00;;;2.80;;
8488;SDS011;4281;45.772;12.852;2023-07-20T05:10:45;3.87;;;2.90;;
8488;SDS011;4281;45.772;12.852;2023-07-20T05:13:13;5.37;;;2.77;;
8488;SDS011;4281;45.772;12.852;2023-07-20T05:15:41;3.50;;;3.03;;
8488;SDS011;4281;45.772;12.852;2023-07-20T05:18:10;4.17;;;2.93;;
8488;SDS011;4281;45.772;12.852;2023-07-20T05:20:39;3.20;;;2.90;;
8488;SDS011;4281;45.772;12.852;2023-07-20T05:23:07;3.30;;;3.00;;
8488;SDS011;4281;45.772;12.852;2023-07-20T05:25:35;3.90;;;2.57;;
8488;SDS011;4281;45.772;12.852;2023-07-20T05:28:03;3.23;;;2.77;;
8488;SDS011;4281;45.772;12.852;2023-07-20T05:30:32;4.60;;;3.00;;
8488;SDS011;4281;45.772;12.852;2023-07-20T05:32:59;3.30;;;3.00;;
8488;SDS011;4281;45.772;12.852;2023-07-20T05:35:29;4.07;;;3.13;;
8488;SDS011;4281;45.772;12.852;2023-07-20T05:37:57;4.23;;;2.87;;
8488;SDS011;4281;45.772;12.852;2023-07-20T05:40:26;4.20;;;2.80;;
8488;SDS011;4281;45.772;12.852;2023-07-20T05:42:54;3.30;;;3.00;;
8488;SDS011;4281;45.772;12.852;2023-07-20T05:45:23;3.30;;;2.87;;
8488;SDS011;4281;45.772;12.852;2023-07-20T05:47:51;3.40;;;2.90;;
8488;SDS011;4281;45.772;12.852;2023-07-20T05:50:19;3.73;;;2.90;;
8488;SDS011;4281;45.772;12.852;2023-07-20T05:52:48;3.57;;;2.60;;
8488;SDS011;4281;45.772;12.852;2023-07-20T05:55:16;4.40;;;3.30;;
8488;SDS011;4281;45.772;12.852;2023-07-20T05:57:44;3.40;;;3.10;;
8488;SDS011;4281;45.772;12.852;2023-07-20T06:00:12;2.97;;;2.77;;
8488;SDS011;4281;45.772;12.852;2023-07-20T06:02:40;2.90;;;2.57;;
8488;SDS011;4281;45.772;12.852;2023-07-20T06:05:09;3.40;;;3.00;;
8488;SDS011;4281;45.772;12.852;2023-07-20T06:07:38;3.40;;;3.10;;
8488;SDS011;4281;45.772;12.852;2023-07-20T06:10:07;3.37;;;3.07;;
8488;SDS011;4281;45.772;12.852;2023-07-20T06:12:35;3.10;;;2.80;;
8488;SDS011;4281;45.772;12.852;2023-07-20T06:15:04;4.17;;;2.97;;
8488;SDS011;4281;45.772;12.852;2023-07-20T06:17:33;3.87;;;3.03;;
8488;SDS011;4281;45.772;12.852;2023-07-20T06:20:04;5.03;;;2.97;;
8488;SDS011;4281;45.772;12.852;2023-07-20T06:22:34;3.60;;;3.00;;
8488;SDS011;4281;45.772;12.852;2023-07-20T06:25:02;3.57;;;3.07;;
8488;SDS011;4281;45.772;12.852;2023-07-20T06:27:32;3.10;;;2.80;;
8488;SDS011;4281;45.772;12.852;2023-07-20T06:30:00;3.40;;;3.10;;
8488;SDS011;4281;45.772;12.852;2023-07-20T06:32:28;3.33;;;2.80;;
8488;SDS011;4281;45.772;12.852;2023-07-20T06:34:56;3.37;;;2.73;;
8488;SDS011;4281;45.772;12.852;2023-07-20T06:37:24;3.10;;;2.70;;
8488;SDS011;4281;45.772;12.852;2023-07-20T06:39:52;3.67;;;2.67;;
8488;SDS011;4281;45.772;12.852;2023-07-20T06:42:23;3.67;;;2.60;;
8488;SDS011;4281;45.772;12.852;2023-07-20T06:44:52;2.90;;;2.63;;
8488;SDS011;4281;45.772;12.852;2023-07-20T06:47:20;3.27;;;2.70;;
8488;SDS011;4281;45.772;12.852;2023-07-20T06:49:48;3.47;;;2.90;;
8488;SDS011;4281;45.772;12.852;2023-07-20T06:52:16;3.37;;;2.70;;
8488;SDS011;4281;45.772;12.852;2023-07-20T06:54:44;4.50;;;2.90;;
8488;SDS011;4281;45.772;12.852;2023-07-20T06:57:17;4.10;;;2.60;;
8488;SDS011;4281;45.772;12.852;2023-07-20T06:59:45;3.07;;;2.77;;
8488;SDS011;4281;45.772;12.852;2023-07-20T07:02:15;5.03;;;3.10;;
8488;SDS011;4281;45.772;12.852;2023-07-20T07:04:45;4.73;;;3.00;;
8488;SDS011;4281;45.772;12.852;2023-07-20T07:07:14;3.20;;;2.50;;
8488;SDS011;4281;45.772;12.852;2023-07-20T07:09:52;4.17;;;2.90;;
8488;SDS011;4281;45.772;12.852;2023-07-20T07:12:20;3.73;;;2.63;;
8488;SDS011;4281;45.772;12.852;2023-07-20T07:14:48;2.90;;;2.70;;
8488;SDS011;4281;45.772;12.852;2023-07-20T07:17:17;2.77;;;2.53;;
8488;SDS011;4281;45.772;12.852;2023-07-20T07:19:46;3.03;;;2.57;;
8488;SDS011;4281;45.772;12.852;2023-07-20T07:22:15;3.23;;;2.73;;
8488;SDS011;4281;45.772;12.852;2023-07-20T07:24:43;5.00;;;2.90;;
8488;SDS011;4281;45.772;12.852;2023-07-20T07:27:11;2.93;;;2.63;;
8488;SDS011;4281;45.772;12.852;2023-07-20T07:29:39;5.93;;;2.73;;
8488;SDS011;4281;45.772;12.852;2023-07-20T07:32:10;2.83;;;2.63;;
8488;SDS011;4281;45.772;12.852;2023-07-20T07:34:40;4.03;;;3.10;;
8488;SDS011;4281;45.772;12.852;2023-07-20T07:37:08;3.70;;;2.57;;
8488;SDS011;4281;45.772;12.852;2023-07-20T07:39:36;3.17;;;2.40;;
8488;SDS011;4281;45.772;12.852;2023-07-20T07:42:04;3.10;;;2.63;;
8488;SDS011;4281;45.772;12.852;2023-07-20T07:44:32;4.87;;;2.80;;
8488;SDS011;4281;45.772;12.852;2023-07-20T07:47:00;2.90;;;2.57;;
8488;SDS011;4281;45.772;12.852;2023-07-20T07:49:28;2.80;;;2.50;;
8488;SDS011;4281;45.772;12.852;2023-07-20T07:52:00;3.30;;;2.63;;
8488;SDS011;4281;45.772;12.852;2023-07-20T07:54:28;3.47;;;2.60;;
8488;SDS011;4281;45.772;12.852;2023-07-20T07:56:56;3.37;;;2.37;;
8488;SDS011;4281;45.772;12.852;2023-07-20T07:59:24;2.90;;;2.43;;
8488;SDS011;4281;45.772;12.852;2023-07-20T08:01:52;3.37;;;2.53;;
8488;SDS011;4281;45.772;12.852;2023-07-20T08:04:21;3.00;;;2.37;;
8488;SDS011;4281;45.772;12.852;2023-07-20T08:06:49;3.57;;;2.30;;
8488;SDS011;4281;45.772;12.852;2023-07-20T08:09:19;2.83;;;2.40;;
8488;SDS011;4281;45.772;12.852;2023-07-20T08:11:47;3.53;;;2.40;;
8488;SDS011;4281;45.772;12.852;2023-07-20T08:14:18;4.00;;;2.40;;
8488;SDS011;4281;45.772;12.852;2023-07-20T08:16:46;2.97;;;2.20;;
8488;SDS011;4281;45.772;12.852;2023-07-20T08:19:14;2.87;;;2.57;;
8488;SDS011;4281;45.772;12.852;2023-07-20T08:21:42;2.60;;;2.40;;
8488;SDS011;4281;45.772;12.852;2023-07-20T08:24:10;3.17;;;2.43;;
8488;SDS011;4281;45.772;12.852;2023-07-20T08:26:40;2.63;;;2.40;;
8488;SDS011;4281;45.772;12.852;2023-07-20T08:29:07;2.97;;;2.57;;
8488;SDS011;4281;45.772;12.852;2023-07-20T08:31:35;2.67;;;2.33;;
8488;SDS011;4281;45.772;12.852;2023-07-20T08:34:03;5.73;;;2.47;;
8488;SDS011;4281;45.772;12.852;2023-07-20T08:36:45;3.63;;;2.33;;
8488;SDS011;4281;45.772;12.852;2023-07-20T08:39:13;3.30;;;2.30;;
8488;SDS011;4281;45.772;12.852;2023-07-20T08:41:43;4.10;;;2.63;;
8488;SDS011;4281;45.772;12.852;2023-07-20T08:44:11;2.90;;;2.40;;
8488;SDS011;4281;45.772;12.852;2023-07-20T08:46:39;3.77;;;2.33;;
8488;SDS011;4281;45.772;12.852;2023-07-20T08:49:08;3.97;;;2.33;;
8488;SDS011;4281;45.772;12.852;2023-07-20T08:51:36;4.97;;;2.37;;
8488;SDS011;4281;45.772;12.852;2023-07-20T08:54:05;3.27;;;2.20;;
8488;SDS011;4281;45.772;12.852;2023-07-20T08:56:33;2.50;;;2.20;;
8488;SDS011;4281;45.772;12.852;2023-07-20T08:59:03;2.47;;;2.27;;
8488;SDS011;4281;45.772;12.852;2023-07-20T09:01:31;2.50;;;2.30;;
8488;SDS011;4281;45.772;12.852;2023-07-20T09:03:59;2.73;;;2.37;;
8488;SDS011;4281;45.772;12.852;2023-07-20T09:06:27;3.10;;;2.07;;
8488;SDS011;4281;45.772;12.852;2023-07-20T09:08:55;2.23;;;2.00;;
8488;SDS011;4281;45.772;12.852;2023-07-20T09:11:23;2.63;;;2.30;;
8488;SDS011;4281;45.772;12.852;2023-07-20T09:14:03;2.97;;;2.30;;
8488;SDS011;4281;45.772;12.852;2023-07-20T09:16:31;2.70;;;2.50;;
8488;SDS011;4281;45.772;12.852;2023-07-20T09:18:59;3.73;;;2.10;;
8488;SDS011;4281;45.772;12.852;2023-07-20T09:21:28;2.13;;;1.90;;
8488;SDS011;4281;45.772;12.852;2023-07-20T09:23:57;2.40;;;2.20;;
8488;SDS011;4281;45.772;12.852;2023-07-20T09:26:24;2.53;;;2.33;;
8488;SDS011;4281;45.772;12.852;2023-07-20T09:28:54;2.93;;;2.20;;
8488;SDS011;4281;45.772;12.852;2023-07-20T09:31:23;3.17;;;2.40;;
8488;SDS011;4281;45.772;12.852;2023-07-20T09:33:52;2.00;;;1.80;;
8488;SDS011;4281;45.772;12.852;2023-07-20T09:36:24;2.20;;;2.00;;
8488;SDS011;4281;45.772;12.852;2023-07-20T09:38:58;2.60;;;2.00;;
8488;SDS011;4281;45.772;12.852;2023-07-20T09:41:29;3.57;;;2.40;;
8488;SDS011;4281;45.772;12.852;2023-07-20T09:44:00;4.27;;;2.20;;
8488;SDS011;4281;45.772;12.852;2023-07-20T09:46:50;3.37;;;2.30;;
8488;SDS011;4281;45.772;12.852;2023-07-20T09:49:21;2.97;;;2.20;;
8488;SDS011;4281;45.772;12.852;2023-07-20T09:51:52;3.00;;;2.17;;
8488;SDS011;4281;45.772;12.852;2023-07-20T09:54:21;3.77;;;2.20;;
8488;SDS011;4281;45.772;12.852;2023-07-20T09:56:49;2.33;;;2.00;;
8488;SDS011;4281;45.772;12.852;2023-07-20T09:59:18;2.40;;;2.20;;
8488;SDS011;4281;45.772;12.852;2023-07-20T10:01:46;2.57;;;2.37;;
8488;SDS011;4281;45.772;12.852;2023-07-20T10:04:16;2.83;;;2.37;;
8488;SDS011;4281;45.772;12.852;2023-07-20T10:06:44;2.53;;;2.23;;
8488;SDS011;4281;45.772;12.852;2023-07-20T10:09:14;2.70;;;2.10;;
8488;SDS011;4281;45.772;12.852;2023-07-20T10:11:45;3.97;;;2.37;;
8488;SDS011;4281;45.772;12.852;2023-07-20T10:14:31;4.40;;;2.20;;
8488;SDS011;4281;45.772;12.852;2023-07-20T10:17:01;2.60;;;2.30;;
8488;SDS011;4281;45.772;12.852;2023-07-20T10:19:33;3.03;;;2.17;;
8488;SDS011;4281;45.772;12.852;2023-07-20T10:22:03;2.20;;;2.00;;
8488;SDS011;4281;45.772;12.852;2023-07-20T10:24:35;2.47;;;2.27;;
8488;SDS011;4281;45.772;12.852;2023-07-20T10:27:04;3.57;;;2.27;;
8488;SDS011;4281;45.772;12.852;2023-07-20T10:29:32;2.33;;;2.10;;
8488;SDS011;4281;45.772;12.852;2023-07-20T10:32:00;2.37;;;2.17;;
8488;SDS011;4281;45.772;12.852;2023-07-20T10:34:29;4.83;;;2.60;;
8488;SDS011;4281;45.772;12.852;2023-07-20T10:36:58;3.37;;;2.43;;
8488;SDS011;4281;45.772;12.852;2023-07-20T10:39:27;2.90;;;2.37;;
8488;SDS011;4281;45.772;12.852;2023-07-20T10:42:00;2.97;;;2.40;;
8488;SDS011;4281;45.772;12.852;2023-07-20T10:44:30;2.73;;;2.43;;
8488;SDS011;4281;45.772;12.852;2023-07-20T10:47:01;3.00;;;2.10;;
8488;SDS011;4281;45.772;12.852;2023-07-20T10:49:32;2.30;;;2.10;;
8488;SDS011;4281;45.772;12.852;2023-07-20T10:52:05;2.50;;;2.30;;
8488;SDS011;4281;45.772;12.852;2023-07-20T10:54:34;2.60;;;2.40;;
8488;SDS011;4281;45.772;12.852;2023-07-20T10:57:21;2.43;;;2.23;;
8488;SDS011;4281;45.772;12.852;2023-07-20T11:00:06;2.60;;;2.40;;
8488;SDS011;4281;45.772;12.852;2023-07-20T11:02:43;2.93;;;2.50;;
8488;SDS011;4281;45.772;12.852;2023-07-20T11:08:01;2.53;;;2.33;;
8488;SDS011;4281;45.772;12.852;2023-07-20T11:10:31;2.53;;;2.20;;
8488;SDS011;4281;45.772;12.852;2023-07-20T11:13:22;2.70;;;2.50;;
8488;SDS011;4281;45.772;12.852;2023-07-20T11:16:02;2.67;;;2.47;;
8488;SDS011;4281;45.772;12.852;2023-07-20T11:18:34;3.37;;;2.60;;
8488;SDS011;4281;45.772;12.852;2023-07-20T11:21:07;2.90;;;2.30;;
8488;SDS011;4281;45.772;12.852;2023-07-20T11:23:40;3.77;;;2.70;;
8488;SDS011;4281;45.772;12.852;2023-07-20T11:26:07;3.07;;;2.60;;
8488;SDS011;4281;45.772;12.852;2023-07-20T11:28:36;2.50;;;2.30;;
8488;SDS011;4281;45.772;12.852;2023-07-20T11:31:04;4.73;;;2.90;;
8488;SDS011;4281;45.772;12.852;2023-07-20T11:33:32;3.83;;;2.90;;
8488;SDS011;4281;45.772;12.852;2023-07-20T11:36:00;3.10;;;2.80;;
8488;SDS011;4281;45.772;12.852;2023-07-20T11:38:28;2.63;;;2.43;;
8488;SDS011;4281;45.772;12.852;2023-07-20T11:40:57;5.70;;;3.10;;
8488;SDS011;4281;45.772;12.852;2023-07-20T11:43:25;2.90;;;2.60;;
8488;SDS011;4281;45.772;12.852;2023-07-20T11:45:53;3.37;;;3.07;;
8488;SDS011;4281;45.772;12.852;2023-07-20T11:48:21;3.67;;;3.00;;
8488;SDS011;4281;45.772;12.852;2023-07-20T11:50:49;2.93;;;2.60;;
8488;SDS011;4281;45.772;12.852;2023-07-20T11:53:17;4.20;;;2.97;;
8488;SDS011;4281;45.772;12.852;2023-07-20T11:55:45;3.43;;;2.93;;
8488;SDS011;4281;45.772;12.852;2023-07-20T11:58:15;3.83;;;2.83;;
8488;SDS011;4281;45.772;12.852;2023-07-20T12:00:43;3.20;;;2.70;;
8488;SDS011;4281;45.772;12.852;2023-07-20T12:03:12;3.77;;;2.70;;
8488;SDS011;4281;45.772;12.852;2023-07-20T12:05:40;2.90;;;2.70;;
8488;SDS011;4281;45.772;12.852;2023-07-20T12:08:11;2.90;;;2.63;;
8488;SDS011;4281;45.772;12.852;2023-07-20T12:10:39;3.17;;;2.73;;
8488;SDS011;4281;45.772;12.852;2023-07-20T12:13:10;3.20;;;2.87;;
8488;SDS011;4281;45.772;12.852;2023-07-20T12:15:40;5.00;;;3.47;;
8488;SDS011;4281;45.772;12.852;2023-07-20T12:18:08;4.67;;;2.70;;
8488;SDS011;4281;45.772;12.852;2023-07-20T12:20:37;3.07;;;2.80;;
8488;SDS011;4281;45.772;12.852;2023-07-20T12:23:08;4.60;;;2.70;;
8488;SDS011;4281;45.772;12.852;2023-07-20T12:25:37;3.93;;;2.80;;
8488;SDS011;4281;45.772;12.852;2023-07-20T12:28:06;3.37;;;3.00;;
8488;SDS011;4281;45.772;12.852;2023-07-20T12:30:35;3.53;;;2.97;;
8488;SDS011;4281;45.772;12.852;2023-07-20T12:33:05;3.27;;;2.97;;
8488;SDS011;4281;45.772;12.852;2023-07-20T12:35:33;4.63;;;3.00;;
8488;SDS011;4281;45.772;12.852;2023-07-20T12:38:01;3.37;;;2.87;;
8488;SDS011;4281;45.772;12.852;2023-07-20T12:40:29;2.87;;;2.67;;
8488;SDS011;4281;45.772;12.852;2023-07-20T12:42:57;3.90;;;2.90;;
8488;SDS011;4281;45.772;12.852;2023-07-20T12:45:25;3.10;;;2.80;;
8488;SDS011;4281;45.772;12.852;2023-07-20T12:47:53;3.90;;;3.07;;
8488;SDS011;4281;45.772;12.852;2023-07-20T12:50:22;3.20;;;2.90;;
8488;SDS011;4281;45.772;12.852;2023-07-20T12:52:50;3.60;;;3.13;;
8488;SDS011;4281;45.772;12.852;2023-07-20T12:55:18;4.87;;;2.93;;
8488;SDS011;4281;45.772;12.852;2023-07-20T12:57:46;3.80;;;2.80;;
8488;SDS011;4281;45.772;12.852;2023-07-20T13:00:15;3.47;;;3.07;;
8488;SDS011;4281;45.772;12.852;2023-07-20T13:02:43;3.27;;;2.80;;
8488;SDS011;4281;45.772;12.852;2023-07-20T13:05:11;3.20;;;2.90;;
8488;SDS011;4281;45.772;12.852;2023-07-20T13:07:41;4.10;;;3.10;;
8488;SDS011;4281;45.772;12.852;2023-07-20T13:10:12;3.47;;;3.17;;
8488;SDS011;4281;45.772;12.852;2023-07-20T13:12:40;3.53;;;3.23;;
8488;SDS011;4281;45.772;12.852;2023-07-20T13:15:08;3.07;;;2.80;;
8488;SDS011;4281;45.772;12.852;2023-07-20T13:17:37;3.73;;;2.77;;
8488;SDS011;4281;45.772;12.852;2023-07-20T13:20:07;3.30;;;2.70;;
8488;SDS011;4281;45.772;12.852;2023-07-20T13:22:37;3.10;;;2.80;;
8488;SDS011;4281;45.772;12.852;2023-07-20T13:25:07;3.23;;;2.93;;
8488;SDS011;4281;45.772;12.852;2023-07-20T13:27:36;4.53;;;3.10;;
8488;SDS011;4281;45.772;12.852;2023-07-20T13:30:06;3.20;;;2.90;;
8488;SDS011;4281;45.772;12.852;2023-07-20T13:32:36;3.63;;;2.90;;
8488;SDS011;4281;45.772;12.852;2023-07-20T13:35:09;3.50;;;2.80;;
8488;SDS011;4281;45.772;12.852;2023-07-20T13:37:37;3.30;;;3.00;;
8488;SDS011;4281;45.772;12.852;2023-07-20T13:40:07;4.33;;;2.83;;
8488;SDS011;4281;45.772;12.852;2023-07-20T13:42:38;3.40;;;2.80;;
8488;SDS011;4281;45.772;12.852;2023-07-20T13:45:07;4.20;;;3.43;;
8488;SDS011;4281;45.772;12.852;2023-07-20T13:47:35;5.63;;;3.30;;
8488;SDS011;4281;45.772;12.852;2023-07-20T13:50:03;3.80;;;3.03;;
8488;SDS011;4281;45.772;12.852;2023-07-20T13:52:32;6.93;;;3.17;;
8488;SDS011;4281;45.772;12.852;2023-07-20T13:55:07;4.97;;;3.13;;
8488;SDS011;4281;45.772;12.852;2023-07-20T13:57:36;4.17;;;3.20;;
8488;SDS011;4281;45.772;12.852;2023-07-20T14:00:04;3.93;;;3.07;;
8488;SDS011;4281;45.772;12.852;2023-07-20T14:02:35;4.67;;;3.00;;
8488;SDS011;4281;45.772;12.852;2023-07-20T14:05:06;4.77;;;2.87;;
8488;SDS011;4281;45.772;12.852;2023-07-20T14:07:38;4.03;;;3.10;;
8488;SDS011;4281;45.772;12.852;2023-07-20T14:10:08;3.00;;;2.70;;
8488;SDS011;4281;45.772;12.852;2023-07-20T14:12:39;4.17;;;2.77;;
8488;SDS011;4281;45.772;12.852;2023-07-20T14:15:07;6.00;;;3.10;;
8488;SDS011;4281;45.772;12.852;2023-07-20T14:17:35;3.53;;;3.03;;
8488;SDS011;4281;45.772;12.852;2023-07-20T14:20:04;4.03;;;2.97;;
8488;SDS011;4281;45.772;12.852;2023-07-20T14:22:47;4.93;;;2.90;;
8488;SDS011;4281;45.772;12.852;2023-07-20T14:25:18;4.03;;;2.77;;
8488;SDS011;4281;45.772;12.852;2023-07-20T14:27:46;4.27;;;2.67;;
8488;SDS011;4281;45.772;12.852;2023-07-20T14:30:14;3.87;;;2.70;;
8488;SDS011;4281;45.772;12.852;2023-07-20T14:32:43;3.23;;;2.43;;
8488;SDS011;4281;45.772;12.852;2023-07-20T14:35:11;3.40;;;2.57;;
8488;SDS011;4281;45.772;12.852;2023-07-20T14:37:40;3.57;;;2.80;;
8488;SDS011;4281;45.772;12.852;2023-07-20T14:40:09;4.53;;;2.70;;
8488;SDS011;4281;45.772;12.852;2023-07-20T14:42:39;4.23;;;2.53;;
8488;SDS011;4281;45.772;12.852;2023-07-20T14:45:07;3.63;;;2.23;;
8488;SDS011;4281;45.772;12.852;2023-07-20T14:47:35;2.83;;;2.23;;
8488;SDS011;4281;45.772;12.852;2023-07-20T14:50:04;3.57;;;2.30;;
8488;SDS011;4281;45.772;12.852;2023-07-20T14:52:33;3.13;;;2.40;;
8488;SDS011;4281;45.772;12.852;2023-07-20T14:55:01;3.87;;;2.23;;
8488;SDS011;4281;45.772;12.852;2023-07-20T14:57:29;2.83;;;2.20;;
8488;SDS011;4281;45.772;12.852;2023-07-20T14:59:58;3.83;;;2.23;;
8488;SDS011;4281;45.772;12.852;2023-07-20T15:02:26;4.17;;;2.20;;
8488;SDS011;4281;45.772;12.852;2023-07-20T15:04:54;2.73;;;2.30;;
8488;SDS011;4281;45.772;12.852;2023-07-20T15:07:23;2.80;;;2.17;;
8488;SDS011;4281;45.772;12.852;2023-07-20T15:09:51;3.47;;;2.07;;
8488;SDS011;4281;45.772;12.852;2023-07-20T15:12:19;2.30;;;1.93;;
8488;SDS011;4281;45.772;12.852;2023-07-20T15:14:49;3.23;;;2.40;;
8488;SDS011;4281;45.772;12.852;2023-07-20T15:17:32;3.33;;;2.20;;